createdAt,value
2017-11-26T00:00:24.691Z,3.83
2017-11-26T00:01:24.707Z,3.83
2017-11-26T00:02:24.695Z,3.8
2017-11-26T00:03:24.718Z,3.84
2017-11-26T00:04:24.743Z,3.78
2017-11-26T00:06:24.776Z,3.83
2017-11-26T00:09:24.822Z,3.87
2017-11-26T00:10:24.800Z,3.86
2017-11-26T00:11:39.618Z,3.79
2017-11-26T00:12:24.592Z,3.78
2017-11-26T00:13:24.878Z,3.87
2017-11-26T00:15:24.897Z,3.83
2017-11-26T00:16:39.578Z,3.86
2017-11-26T00:17:24.921Z,3.8
2017-11-26T00:18:24.944Z,3.88
2017-11-26T00:19:24.971Z,3.86
2017-11-26T00:20:24.706Z,3.78
2017-11-26T00:21:24.991Z,3.86
2017-11-26T00:22:24.725Z,3.76
2017-11-26T00:23:25.016Z,3.75
2017-11-26T00:24:25.129Z,3.76
2017-11-26T00:25:25.019Z,3.79
2017-11-26T00:26:25.074Z,3.78
2017-11-26T00:27:39.745Z,3.86
2017-11-26T00:29:25.115Z,3.79
2017-11-26T00:30:25.101Z,3.79
2017-11-26T00:31:25.139Z,3.79
2017-11-26T00:32:25.146Z,3.78
2017-11-26T00:33:24.916Z,3.86
2017-11-26T00:34:24.939Z,3.83
2017-11-26T00:35:25.214Z,3.84
2017-11-26T00:36:39.860Z,3.73
2017-11-26T00:37:25.210Z,3.83
2017-11-26T00:39:25.265Z,3.69
2017-11-26T00:40:25.259Z,3.68
2017-11-26T00:41:25.304Z,3.65
2017-11-26T00:42:25.287Z,3.76
2017-11-26T00:43:39.711Z,3.57
2017-11-26T00:45:25.344Z,3.61
2017-11-26T00:46:25.365Z,3.7
2017-11-26T00:47:25.389Z,3.57
2017-11-26T00:48:25.369Z,3.58
2017-11-26T00:49:25.383Z,3.52
2017-11-26T00:51:25.452Z,3.62
2017-11-26T00:52:25.449Z,3.54
2017-11-26T00:53:25.478Z,3.45
2017-11-26T00:54:25.217Z,3.62
2017-11-26T00:55:25.259Z,3.62
2017-11-26T00:56:25.528Z,3.66
2017-11-26T00:57:25.507Z,3.62
2017-11-26T00:58:25.554Z,3.54
2017-11-26T00:59:40.213Z,3.45
2017-11-26T01:00:25.589Z,3.51
2017-11-26T01:01:25.572Z,3.43
2017-11-26T01:02:25.587Z,3.45
2017-11-26T01:03:25.643Z,3.4
2017-11-26T01:04:25.615Z,3.31
2017-11-26T01:05:25.682Z,3.47
2017-11-26T01:06:25.688Z,3.31
2017-11-26T01:07:25.403Z,3.33
2017-11-26T01:08:25.826Z,3.48
2017-11-26T01:09:25.701Z,3.5
2017-11-26T01:10:25.706Z,3.51
2017-11-26T01:11:25.741Z,3.51
2017-11-26T01:12:25.734Z,3.48
2017-11-26T01:13:25.758Z,3.54
2017-11-26T01:14:40.455Z,3.4
2017-11-26T01:15:25.835Z,3.42
2017-11-26T01:16:25.790Z,3.36
2017-11-26T01:17:25.840Z,3.39
2017-11-26T01:18:25.840Z,3.33
2017-11-26T01:19:25.873Z,3.31
2017-11-26T01:20:25.625Z,3.33
2017-11-26T01:21:25.868Z,3.35
2017-11-26T01:22:25.660Z,3.52
2017-11-26T01:23:25.929Z,3.52
2017-11-26T01:24:25.947Z,3.36
2017-11-26T01:25:40.604Z,3.47
2017-11-26T01:26:25.962Z,3.5
2017-11-26T01:27:25.695Z,3.43
2017-11-26T01:28:25.998Z,3.51
2017-11-26T01:29:26.003Z,3.51
2017-11-26T01:30:26.045Z,3.51
2017-11-26T01:31:26.043Z,3.43
2017-11-26T01:32:26.057Z,3.35
2017-11-26T01:33:26.161Z,3.36
2017-11-26T01:34:26.078Z,3.28
2017-11-26T01:35:26.083Z,3.29
2017-11-26T01:36:26.121Z,3.32
2017-11-26T01:37:26.154Z,3.29
2017-11-26T01:38:26.182Z,3.29
2017-11-26T01:39:40.814Z,3.26
2017-11-26T01:40:26.175Z,3.35
2017-11-26T01:41:26.191Z,3.29
2017-11-26T01:42:26.190Z,3.39
2017-11-26T01:43:26.219Z,3.33
2017-11-26T01:44:26.251Z,3.36
2017-11-26T01:45:26.222Z,3.58
2017-11-26T01:46:40.937Z,3.36
2017-11-26T01:47:26.288Z,3.36
2017-11-26T01:49:26.318Z,3.32
2017-11-26T01:50:26.360Z,3.35
2017-11-26T01:51:26.387Z,3.31
2017-11-26T01:53:26.373Z,3.32
2017-11-26T01:55:26.401Z,3.31
2017-11-26T01:56:26.396Z,3.31
2017-11-26T01:57:26.425Z,3.33
2017-11-26T01:58:26.438Z,3.33
2017-11-26T01:59:26.465Z,3.32
2017-11-26T02:00:26.466Z,3.21
2017-11-26T02:02:41.178Z,3.21
2017-11-26T02:03:26.542Z,3.14
2017-11-26T02:04:26.283Z,3.13
2017-11-26T02:05:26.290Z,3.2
2017-11-26T02:06:41.236Z,3.03
2017-11-26T02:07:26.592Z,3.15
2017-11-26T02:08:26.614Z,3.06
2017-11-26T02:09:26.622Z,3.02
2017-11-26T02:10:26.660Z,3.03
2017-11-26T02:11:26.649Z,3.05
2017-11-26T02:12:26.645Z,2.93
2017-11-26T02:13:26.663Z,3.03
2017-11-26T02:14:26.698Z,2.95
2017-11-26T02:15:26.720Z,2.97
2017-11-26T02:16:26.720Z,2.93
2017-11-26T02:17:26.708Z,2.95
2017-11-26T02:18:41.410Z,2.9
2017-11-26T02:19:26.756Z,2.9
2017-11-26T02:20:26.265Z,2.79
2017-11-26T02:21:26.252Z,2.87
2017-11-26T02:22:26.784Z,2.84
2017-11-26T02:23:26.813Z,2.79
2017-11-26T02:24:26.825Z,2.78
2017-11-26T02:25:26.837Z,2.78
2017-11-26T02:26:26.844Z,2.95
2017-11-26T02:27:41.574Z,2.93
2017-11-26T02:28:26.877Z,2.92
2017-11-26T02:29:41.558Z,2.82
2017-11-26T02:30:26.662Z,2.93
2017-11-26T02:31:26.948Z,2.93
2017-11-26T02:32:26.938Z,2.78
2017-11-26T02:33:26.993Z,2.87
2017-11-26T02:34:41.665Z,2.85
2017-11-26T02:35:26.983Z,2.87
2017-11-26T02:36:26.993Z,2.82
2017-11-26T02:37:27.023Z,2.85
2017-11-26T02:39:27.086Z,2.75
2017-11-26T02:40:27.091Z,2.78
2017-11-26T02:41:27.083Z,2.74
2017-11-26T02:42:27.139Z,2.78
2017-11-26T02:43:26.859Z,2.66
2017-11-26T02:44:27.165Z,2.67
2017-11-26T02:45:27.193Z,2.82
2017-11-26T02:46:27.151Z,2.74
2017-11-26T02:47:27.195Z,2.72
2017-11-26T02:48:27.196Z,2.74
2017-11-26T02:49:41.877Z,2.71
2017-11-26T02:50:27.215Z,2.63
2017-11-26T02:51:27.239Z,2.56
2017-11-26T02:52:27.232Z,2.49
2017-11-26T02:53:27.001Z,2.56
2017-11-26T02:54:27.268Z,2.57
2017-11-26T02:55:27.317Z,2.49
2017-11-26T02:56:27.312Z,2.53
2017-11-26T02:57:27.435Z,2.49
2017-11-26T02:58:27.335Z,2.49
2017-11-26T02:59:27.344Z,2.48
2017-11-26T03:00:27.337Z,2.46
2017-11-26T03:01:27.357Z,2.39
2017-11-26T03:02:27.387Z,2.42
2017-11-26T03:03:27.422Z,2.34
2017-11-26T03:04:27.426Z,2.38
2017-11-26T03:05:27.412Z,2.46
2017-11-26T03:06:27.447Z,2.36
2017-11-26T03:07:27.468Z,2.36
2017-11-26T03:08:27.489Z,2.49
2017-11-26T03:09:27.534Z,2.38
2017-11-26T03:10:27.268Z,2.46
2017-11-26T03:11:27.544Z,2.46
2017-11-26T03:12:27.532Z,2.46
2017-11-26T03:13:27.567Z,2.38
2017-11-26T03:14:27.545Z,2.38
2017-11-26T03:15:27.564Z,2.46
2017-11-26T03:16:27.639Z,2.48
2017-11-26T03:17:27.607Z,2.39
2017-11-26T03:18:27.630Z,2.35
2017-11-26T03:19:42.325Z,2.35
2017-11-26T03:20:27.650Z,2.34
2017-11-26T03:21:42.346Z,2.35
2017-11-26T03:22:27.670Z,2.36
2017-11-26T03:23:27.714Z,2.31
2017-11-26T03:24:27.452Z,2.34
2017-11-26T03:25:27.466Z,2.25
2017-11-26T03:26:27.745Z,2.3
2017-11-26T03:27:27.773Z,2.31
2017-11-26T03:29:27.774Z,2.17
2017-11-26T03:30:27.779Z,2.06
2017-11-26T03:31:27.857Z,2.14
2017-11-26T03:32:27.828Z,2.18
2017-11-26T03:33:27.817Z,2.18
2017-11-26T03:34:27.899Z,2.24
2017-11-26T03:36:27.892Z,2.43
2017-11-26T03:37:42.561Z,2.46
2017-11-26T03:38:28.011Z,2.35
2017-11-26T03:39:28.053Z,2.42
2017-11-26T03:40:27.704Z,2.34
2017-11-26T03:41:27.956Z,2.38
2017-11-26T03:42:27.973Z,2.31
2017-11-26T03:43:27.970Z,2.31
2017-11-26T03:44:27.981Z,2.38
2017-11-26T03:45:28.015Z,2.36
2017-11-26T03:46:28.034Z,2.31
2017-11-26T03:47:28.071Z,2.35
2017-11-26T03:49:28.072Z,2.36
2017-11-26T03:50:28.108Z,2.35
2017-11-26T03:51:28.117Z,2.36
2017-11-26T03:52:28.135Z,2.42
2017-11-26T03:53:42.821Z,2.27
2017-11-26T03:54:28.175Z,2.35
2017-11-26T03:55:28.177Z,2.34
2017-11-26T03:56:28.189Z,2.24
2017-11-26T03:57:42.860Z,2.28
2017-11-26T03:58:42.879Z,2.28
2017-11-26T03:59:28.211Z,2.21
2017-11-26T04:00:28.253Z,2.17
2017-11-26T04:01:28.265Z,2.23
2017-11-26T04:02:28.233Z,2.24
2017-11-26T04:03:42.924Z,2.35
2017-11-26T04:04:28.291Z,2.36
2017-11-26T04:05:28.320Z,2.45
2017-11-26T04:06:28.336Z,2.36
2017-11-26T04:07:28.326Z,2.35
2017-11-26T04:08:28.350Z,2.27
2017-11-26T04:09:43.138Z,2.17
2017-11-26T04:11:28.419Z,2.14
2017-11-26T04:12:28.432Z,2.12
2017-11-26T04:13:28.414Z,2.18
2017-11-26T04:14:28.432Z,2.18
2017-11-26T04:15:28.449Z,2.18
2017-11-26T04:16:28.461Z,2.12
2017-11-26T04:17:28.479Z,2.09
2017-11-26T04:18:28.489Z,2.1
2017-11-26T04:19:28.514Z,2.1
2017-11-26T04:20:28.519Z,2.03
2017-11-26T04:21:28.531Z,2
2017-11-26T04:22:28.559Z,2.03
2017-11-26T04:23:28.570Z,1.99
2017-11-26T04:24:43.262Z,1.98
2017-11-26T04:25:28.593Z,2.06
2017-11-26T04:26:28.606Z,2.02
2017-11-26T04:27:28.623Z,2
2017-11-26T04:28:28.610Z,2
2017-11-26T04:29:28.679Z,1.98
2017-11-26T04:30:28.651Z,2.02
2017-11-26T04:31:28.678Z,1.98
2017-11-26T04:32:28.723Z,1.98
2017-11-26T04:33:28.445Z,2
2017-11-26T04:34:28.762Z,1.93
2017-11-26T04:35:28.731Z,1.91
2017-11-26T04:36:28.780Z,2.06
2017-11-26T04:37:28.735Z,2.03
2017-11-26T04:38:28.794Z,1.9
2017-11-26T04:39:28.790Z,1.87
2017-11-26T04:40:28.804Z,1.86
2017-11-26T04:41:28.812Z,1.86
2017-11-26T04:42:28.832Z,1.8
2017-11-26T04:43:28.824Z,1.77
2017-11-26T04:44:28.836Z,1.73
2017-11-26T04:45:28.634Z,1.72
2017-11-26T04:46:28.907Z,1.79
2017-11-26T04:47:28.887Z,1.79
2017-11-26T04:48:28.974Z,1.77
2017-11-26T04:49:28.925Z,1.7
2017-11-26T04:50:28.947Z,1.79
2017-11-26T04:51:28.973Z,1.63
2017-11-26T04:52:29.022Z,1.63
2017-11-26T04:53:29.011Z,1.66
2017-11-26T04:54:29.029Z,1.62
2017-11-26T04:55:29.036Z,1.6
2017-11-26T04:56:43.687Z,1.55
2017-11-26T04:57:29.048Z,1.58
2017-11-26T04:58:29.045Z,1.58
2017-11-26T04:59:29.072Z,1.54
2017-11-26T05:00:29.108Z,1.68
2017-11-26T05:01:29.135Z,1.55
2017-11-26T05:02:29.102Z,1.65
2017-11-26T05:03:29.133Z,1.63
2017-11-26T05:04:29.157Z,1.6
2017-11-26T05:05:43.849Z,1.51
2017-11-26T05:06:29.193Z,1.54
2017-11-26T05:07:28.931Z,1.52
2017-11-26T05:08:29.209Z,1.58
2017-11-26T05:10:29.220Z,1.58
2017-11-26T05:11:29.265Z,1.62
2017-11-26T05:12:43.908Z,1.58
2017-11-26T05:13:29.251Z,1.58
2017-11-26T05:15:29.279Z,1.73
2017-11-26T05:16:29.290Z,1.73
2017-11-26T05:17:29.308Z,1.81
2017-11-26T05:18:29.345Z,1.84
2017-11-26T05:20:29.383Z,1.81
2017-11-26T05:21:29.363Z,1.88
2017-11-26T05:22:29.405Z,1.79
2017-11-26T05:23:29.428Z,1.95
2017-11-26T05:24:29.407Z,1.8
2017-11-26T05:26:29.466Z,1.84
2017-11-26T05:27:29.479Z,1.8
2017-11-26T05:28:43.884Z,1.88
2017-11-26T05:29:29.512Z,1.9
2017-11-26T05:30:29.500Z,1.81
2017-11-26T05:31:29.526Z,1.81
2017-11-26T05:32:29.528Z,1.84
2017-11-26T05:33:29.525Z,1.84
2017-11-26T05:34:29.574Z,1.9
2017-11-26T05:35:29.586Z,1.83
2017-11-26T05:36:29.352Z,1.76
2017-11-26T05:37:29.611Z,1.86
2017-11-26T05:38:29.606Z,1.84
2017-11-26T05:39:29.375Z,1.87
2017-11-26T05:40:29.650Z,1.9
2017-11-26T05:41:29.652Z,1.87
2017-11-26T05:42:29.525Z,1.79
2017-11-26T05:44:44.359Z,1.77
2017-11-26T05:45:29.701Z,1.8
2017-11-26T05:46:29.734Z,1.69
2017-11-26T05:47:29.730Z,1.79
2017-11-26T05:48:29.509Z,1.79
2017-11-26T05:49:29.758Z,1.7
2017-11-26T05:50:29.549Z,1.58
2017-11-26T05:51:29.798Z,1.68
2017-11-26T05:52:29.815Z,1.69
2017-11-26T05:54:29.585Z,1.63
2017-11-26T05:55:29.864Z,1.66
2017-11-26T05:56:29.877Z,1.68
2017-11-26T05:57:29.904Z,1.8
2017-11-26T05:58:29.935Z,1.79
2017-11-26T05:59:44.586Z,1.73
2017-11-26T06:00:29.965Z,1.76
2017-11-26T06:02:29.960Z,1.73
2017-11-26T06:03:29.995Z,1.63
2017-11-26T06:04:44.666Z,1.66
2017-11-26T06:05:30.005Z,1.77
2017-11-26T06:06:30.020Z,1.62
2017-11-26T06:07:30.011Z,1.65
2017-11-26T06:08:30.090Z,1.69
2017-11-26T06:09:30.078Z,1.66
2017-11-26T06:10:44.727Z,1.59
2017-11-26T06:11:29.833Z,1.66
2017-11-26T06:12:30.100Z,1.63
2017-11-26T06:13:30.095Z,1.55
2017-11-26T06:14:30.128Z,1.55
2017-11-26T06:15:30.141Z,1.6
2017-11-26T06:16:30.267Z,1.68
2017-11-26T06:17:30.172Z,1.68
2017-11-26T06:18:30.189Z,1.58
2017-11-26T06:19:30.175Z,1.65
2017-11-26T06:20:30.193Z,1.62
2017-11-26T06:21:30.268Z,1.59
2017-11-26T06:22:29.970Z,1.6
2017-11-26T06:23:30.266Z,1.62
2017-11-26T06:24:30.260Z,1.65
2017-11-26T06:26:30.291Z,1.44
2017-11-26T06:27:30.282Z,1.32
2017-11-26T06:29:30.329Z,1.32
2017-11-26T06:31:45.019Z,1.29
2017-11-26T06:32:30.420Z,1.27
2017-11-26T06:33:30.396Z,1.24
2017-11-26T06:34:30.471Z,1.2
2017-11-26T06:35:30.423Z,1.3
2017-11-26T06:36:30.437Z,1.33
2017-11-26T06:37:30.535Z,1.23
2017-11-26T06:38:30.457Z,1.33
2017-11-26T06:39:30.230Z,1.4
2017-11-26T06:40:30.506Z,1.41
2017-11-26T06:41:30.537Z,1.63
2017-11-26T06:42:30.527Z,1.66
2017-11-26T06:43:30.555Z,1.79
2017-11-26T06:45:30.545Z,1.76
2017-11-26T06:46:30.577Z,1.77
2017-11-26T06:47:45.244Z,1.73
2017-11-26T06:48:30.605Z,1.76
2017-11-26T06:49:30.591Z,1.8
2017-11-26T06:50:30.612Z,1.99
2017-11-26T06:51:30.639Z,1.99
2017-11-26T06:52:30.676Z,2.16
2017-11-26T06:53:30.648Z,2.12
2017-11-26T06:54:30.684Z,2
2017-11-26T06:55:30.704Z,2.02
2017-11-26T06:56:30.703Z,1.98
2017-11-26T06:57:30.739Z,2.17
2017-11-26T06:58:30.740Z,2.1
2017-11-26T06:59:30.790Z,2.12
2017-11-26T07:00:30.764Z,2.16
2017-11-26T07:01:30.784Z,2.09
2017-11-26T07:02:30.812Z,2.17
2017-11-26T07:03:45.477Z,2.2
2017-11-26T07:04:30.813Z,2.09
2017-11-26T07:05:30.579Z,2.16
2017-11-26T07:06:30.859Z,2.2
2017-11-26T07:07:30.888Z,2.27
2017-11-26T07:08:30.878Z,2.28
2017-11-26T07:09:30.909Z,2.27
2017-11-26T07:10:30.934Z,2.48
2017-11-26T07:11:30.946Z,2.43
2017-11-26T07:12:45.589Z,2.39
2017-11-26T07:13:30.931Z,2.39
2017-11-26T07:14:31.008Z,2.36
2017-11-26T07:15:30.989Z,2.42
2017-11-26T07:17:31.007Z,2.45
2017-11-26T07:18:31.031Z,2.45
2017-11-26T07:19:45.457Z,2.45
2017-11-26T07:20:31.052Z,2.49
2017-11-26T07:21:31.082Z,2.52
2017-11-26T07:22:31.083Z,2.57
2017-11-26T07:23:31.106Z,2.59
2017-11-26T07:24:31.108Z,2.57
2017-11-26T07:25:45.797Z,2.48
2017-11-26T07:26:31.136Z,2.49
2017-11-26T07:27:31.164Z,2.56
2017-11-26T07:28:31.182Z,2.57
2017-11-26T07:29:30.918Z,2.6
2017-11-26T07:30:45.844Z,2.63
2017-11-26T07:31:31.183Z,2.43
2017-11-26T07:32:31.220Z,2.57
2017-11-26T07:33:31.251Z,2.57
2017-11-26T07:35:31.276Z,2.49
2017-11-26T07:36:31.019Z,2.48
2017-11-26T07:38:31.335Z,2.49
2017-11-26T07:39:46.003Z,2.48
2017-11-26T07:40:31.084Z,2.42
2017-11-26T07:41:31.343Z,2.49
2017-11-26T07:42:31.387Z,2.35
2017-11-26T07:43:31.377Z,2.38
2017-11-26T07:44:31.421Z,2.49
2017-11-26T07:45:31.441Z,2.48
2017-11-26T07:46:31.448Z,2.56
2017-11-26T07:47:31.435Z,2.53
2017-11-26T07:48:31.438Z,2.61
2017-11-26T07:49:31.574Z,2.57
2017-11-26T07:50:31.481Z,2.67
2017-11-26T07:51:31.512Z,2.81
2017-11-26T07:52:31.536Z,2.71
2017-11-26T07:53:31.560Z,2.81
2017-11-26T07:54:31.642Z,2.93
2017-11-26T07:55:31.565Z,2.96
2017-11-26T07:56:31.569Z,2.97
2017-11-26T07:57:31.353Z,2.97
2017-11-26T07:58:31.610Z,2.97
2017-11-26T07:59:31.644Z,2.99
2017-11-26T08:00:31.616Z,3.06
2017-11-26T08:01:31.678Z,3.05
2017-11-26T08:02:31.655Z,3.06
2017-11-26T08:03:31.683Z,3.11
2017-11-26T08:04:31.674Z,3.08
2017-11-26T08:05:31.790Z,3.18
2017-11-26T08:06:46.385Z,3.1
2017-11-26T08:07:31.712Z,3.11
2017-11-26T08:08:31.732Z,3.18
2017-11-26T08:10:31.759Z,3.17
2017-11-26T08:11:31.785Z,3.29
2017-11-26T08:12:31.781Z,3.32
2017-11-26T08:13:31.579Z,3.33
2017-11-26T08:14:31.856Z,3.2
2017-11-26T08:15:31.861Z,3.36
2017-11-26T08:16:31.867Z,3.31
2017-11-26T08:17:31.877Z,3.13
2017-11-26T08:18:31.930Z,3.2
2017-11-26T08:19:31.928Z,3.23
2017-11-26T08:20:31.919Z,3.1
2017-11-26T08:21:31.942Z,3.1
2017-11-26T08:22:46.604Z,3.17
2017-11-26T08:23:32.091Z,3.06
2017-11-26T08:25:46.671Z,3.13
2017-11-26T08:26:32.026Z,3.21
2017-11-26T08:27:32.020Z,3.06
2017-11-26T08:28:32.037Z,3.15
2017-11-26T08:29:32.033Z,3.15
2017-11-26T08:30:32.074Z,3.2
2017-11-26T08:31:32.219Z,3.15
2017-11-26T08:32:32.132Z,3.14
2017-11-26T08:33:32.133Z,3.14
2017-11-26T08:34:32.129Z,3.2
2017-11-26T08:35:31.911Z,3.24
2017-11-26T08:36:32.157Z,3.23
2017-11-26T08:37:32.153Z,3.21
2017-11-26T08:38:46.866Z,3.28
2017-11-26T08:39:32.213Z,3.18
2017-11-26T08:40:32.232Z,3.18
2017-11-26T08:41:32.228Z,3.23
2017-11-26T08:42:32.236Z,3.17
2017-11-26T08:43:32.269Z,3.2
2017-11-26T08:44:46.963Z,3.26
2017-11-26T08:45:32.029Z,3.21
2017-11-26T08:46:32.308Z,3.29
2017-11-26T08:47:32.307Z,3.29
2017-11-26T08:48:32.338Z,3.2
2017-11-26T08:49:32.386Z,3.31
2017-11-26T08:50:32.487Z,3.23
2017-11-26T08:51:31.869Z,3.32
2017-11-26T08:52:32.423Z,3.39
2017-11-26T08:53:32.445Z,3.54
2017-11-26T08:54:47.094Z,3.83
2017-11-26T08:55:32.443Z,3.93
2017-11-26T08:56:32.449Z,3.97
2017-11-26T08:57:32.499Z,4.05
2017-11-26T08:58:32.238Z,4.08
2017-11-26T08:59:47.177Z,4.09
2017-11-26T09:00:32.273Z,4.02
2017-11-26T09:01:47.232Z,4.12
2017-11-26T09:02:32.611Z,4.12
2017-11-26T09:03:32.595Z,4.12
2017-11-26T09:04:32.572Z,4.18
2017-11-26T09:05:32.613Z,4.3
2017-11-26T09:06:32.648Z,4.24
2017-11-26T09:08:32.687Z,4.23
2017-11-26T09:10:32.676Z,4.36
2017-11-26T09:11:32.726Z,4.47
2017-11-26T09:12:32.712Z,4.45
2017-11-26T09:13:32.746Z,4.47
2017-11-26T09:14:32.728Z,4.47
2017-11-26T09:15:32.772Z,4.51
2017-11-26T09:16:32.780Z,4.51
2017-11-26T09:17:47.449Z,4.44
2017-11-26T09:18:47.471Z,4.48
2017-11-26T09:19:32.838Z,4.44
2017-11-26T09:20:32.844Z,4.42
2017-11-26T09:21:32.837Z,4.48
2017-11-26T09:22:32.880Z,4.51
2017-11-26T09:23:32.621Z,4.59
2017-11-26T09:25:32.916Z,4.51
2017-11-26T09:26:32.673Z,4.65
2017-11-26T09:28:32.998Z,4.8
2017-11-26T09:29:33.016Z,4.8
2017-11-26T09:30:47.680Z,4.78
2017-11-26T09:31:32.745Z,4.67
2017-11-26T09:32:33.060Z,4.67
2017-11-26T09:33:33.068Z,4.69
2017-11-26T09:34:33.093Z,4.73
2017-11-26T09:35:33.120Z,4.69
2017-11-26T09:36:33.078Z,4.78
2017-11-26T09:37:33.131Z,4.94
2017-11-26T09:38:33.123Z,4.88
2017-11-26T09:39:33.161Z,4.91
2017-11-26T09:40:33.140Z,4.86
2017-11-26T09:41:47.824Z,4.89
2017-11-26T09:43:33.193Z,4.88
2017-11-26T09:44:33.216Z,4.99
2017-11-26T09:45:33.243Z,4.92
2017-11-26T09:46:33.247Z,4.91
2017-11-26T09:47:33.001Z,4.85
2017-11-26T09:48:33.281Z,4.88
2017-11-26T09:49:33.294Z,4.86
2017-11-26T09:50:33.060Z,4.78
2017-11-26T09:51:33.339Z,4.78
2017-11-26T09:52:33.365Z,4.88
2017-11-26T09:53:33.364Z,4.91
2017-11-26T09:54:33.356Z,4.88
2017-11-26T09:55:33.141Z,5
2017-11-26T09:56:33.413Z,5.07
2017-11-26T09:57:48.104Z,5.1
2017-11-26T09:58:33.434Z,5.15
2017-11-26T09:59:33.460Z,5.15
2017-11-26T10:00:33.456Z,5.15
2017-11-26T10:01:33.510Z,5.13
2017-11-26T10:02:33.509Z,5.2
2017-11-26T10:04:33.534Z,5.1
2017-11-26T10:05:33.585Z,5.12
2017-11-26T10:07:33.583Z,5.12
2017-11-26T10:08:33.614Z,5.15
2017-11-26T10:09:33.649Z,5.17
2017-11-26T10:10:33.671Z,5.09
2017-11-26T10:11:33.646Z,5.07
2017-11-26T10:12:33.684Z,5.06
2017-11-26T10:13:48.348Z,4.99
2017-11-26T10:14:33.709Z,5.06
2017-11-26T10:15:33.723Z,5
2017-11-26T10:16:48.390Z,4.96
2017-11-26T10:17:33.479Z,5.03
2017-11-26T10:18:33.771Z,5.03
2017-11-26T10:19:33.814Z,4.91
2017-11-26T10:20:33.797Z,5
2017-11-26T10:21:33.810Z,4.89
2017-11-26T10:22:33.834Z,4.96
2017-11-26T10:23:33.841Z,4.92
2017-11-26T10:24:33.853Z,4.97
2017-11-26T10:25:33.853Z,4.94
2017-11-26T10:26:33.899Z,5.06
2017-11-26T10:27:33.933Z,4.99
2017-11-26T10:28:33.930Z,5.06
2017-11-26T10:29:48.598Z,5.1
2017-11-26T10:30:33.948Z,5.15
2017-11-26T10:31:33.964Z,5.15
2017-11-26T10:32:48.661Z,5.17
2017-11-26T10:33:34.003Z,5.27
2017-11-26T10:34:34.018Z,5.3
2017-11-26T10:35:34.065Z,5.33
2017-11-26T10:36:34.072Z,5.36
2017-11-26T10:37:34.071Z,5.39
2017-11-26T10:38:34.077Z,5.45
2017-11-26T10:39:34.075Z,5.43
2017-11-26T10:40:33.853Z,5.46
2017-11-26T10:41:34.137Z,5.46
2017-11-26T10:42:34.127Z,5.49
2017-11-26T10:43:34.160Z,5.53
2017-11-26T10:44:48.838Z,5.57
2017-11-26T10:46:34.211Z,5.65
2017-11-26T10:47:34.228Z,5.65
2017-11-26T10:48:34.240Z,5.54
2017-11-26T10:49:34.378Z,5.63
2017-11-26T10:50:48.931Z,5.72
2017-11-26T10:51:34.311Z,5.71
2017-11-26T10:52:34.329Z,5.72
2017-11-26T10:53:34.304Z,5.81
2017-11-26T10:56:34.121Z,5.81
2017-11-26T10:57:34.375Z,5.91
2017-11-26T10:58:34.151Z,5.85
2017-11-26T10:59:34.483Z,5.9
2017-11-26T11:00:34.451Z,5.91
2017-11-26T11:01:34.429Z,5.85
2017-11-26T11:03:34.506Z,5.85
2017-11-26T11:04:34.513Z,5.97
2017-11-26T11:05:34.502Z,5.97
2017-11-26T11:06:34.537Z,6.04
2017-11-26T11:07:34.616Z,6.09
2017-11-26T11:08:34.592Z,6.06
2017-11-26T11:09:34.593Z,6.12
2017-11-26T11:11:34.654Z,6.17
2017-11-26T11:12:34.660Z,6.09
2017-11-26T11:13:34.678Z,6.09
2017-11-26T11:14:34.680Z,6.18
2017-11-26T11:15:34.690Z,6.21
2017-11-26T11:16:49.380Z,6.25
2017-11-26T11:17:34.721Z,6.21
2017-11-26T11:18:34.764Z,6.22
2017-11-26T11:19:34.482Z,6.18
2017-11-26T11:20:49.442Z,6.22
2017-11-26T11:21:34.816Z,6.22
2017-11-26T11:22:34.810Z,6.27
2017-11-26T11:23:34.839Z,6.22
2017-11-26T11:24:34.814Z,6.33
2017-11-26T11:25:34.832Z,6.3
2017-11-26T11:26:34.873Z,6.44
2017-11-26T11:27:49.543Z,6.43
2017-11-26T11:28:34.883Z,6.4
2017-11-26T11:29:34.676Z,6.3
2017-11-26T11:30:34.664Z,6.4
2017-11-26T11:31:34.965Z,6.52
2017-11-26T11:32:49.650Z,6.55
2017-11-26T11:33:34.991Z,6.58
2017-11-26T11:34:34.761Z,6.52
2017-11-26T11:35:35.052Z,6.55
2017-11-26T11:36:34.809Z,6.55
2017-11-26T11:37:35.057Z,6.46
2017-11-26T11:38:35.100Z,6.49
2017-11-26T11:39:35.101Z,6.55
2017-11-26T11:40:34.840Z,6.41
2017-11-26T11:41:35.102Z,6.4
2017-11-26T11:42:34.862Z,6.41
2017-11-26T11:43:35.168Z,6.46
2017-11-26T11:44:35.157Z,6.44
2017-11-26T11:45:35.172Z,6.52
2017-11-26T11:46:34.965Z,6.48
2017-11-26T11:47:35.199Z,6.59
2017-11-26T11:48:49.917Z,6.52
2017-11-26T11:50:35.300Z,6.54
2017-11-26T11:51:35.294Z,6.52
2017-11-26T11:52:35.287Z,6.44
2017-11-26T11:53:50.095Z,6.43
2017-11-26T11:54:35.322Z,6.38
2017-11-26T11:55:35.390Z,6.34
2017-11-26T11:56:35.412Z,6.34
2017-11-26T11:57:35.400Z,6.37
2017-11-26T11:58:50.090Z,6.31
2017-11-26T11:59:35.426Z,6.34
2017-11-26T12:00:35.447Z,6.33
2017-11-26T12:02:35.501Z,6.17
2017-11-26T12:03:35.485Z,6.17
2017-11-26T12:04:50.175Z,6.21
2017-11-26T12:05:35.529Z,6.27
2017-11-26T12:06:35.542Z,6.31
2017-11-26T12:07:35.302Z,6.3
2017-11-26T12:08:35.570Z,6.4
2017-11-26T12:09:35.573Z,6.49
2017-11-26T12:10:35.607Z,6.37
2017-11-26T12:11:35.647Z,6.52
2017-11-26T12:12:35.670Z,6.62
2017-11-26T12:13:50.312Z,6.67
2017-11-26T12:14:35.764Z,6.58
2017-11-26T12:15:35.455Z,6.55
2017-11-26T12:16:35.734Z,6.56
2017-11-26T12:17:35.454Z,6.59
2017-11-26T12:18:35.758Z,6.67
2017-11-26T12:19:50.414Z,6.62
2017-11-26T12:20:35.787Z,6.76
2017-11-26T12:21:35.815Z,6.71
2017-11-26T12:22:35.833Z,6.76
2017-11-26T12:23:50.502Z,6.73
2017-11-26T12:24:35.858Z,6.76
2017-11-26T12:25:35.886Z,6.76
2017-11-26T12:26:35.886Z,6.7
2017-11-26T12:27:35.896Z,6.7
2017-11-26T12:28:35.916Z,6.73
2017-11-26T12:29:35.948Z,6.79
2017-11-26T12:30:35.993Z,6.67
2017-11-26T12:31:35.964Z,6.76
2017-11-26T12:32:36.009Z,6.76
2017-11-26T12:33:36.017Z,6.69
2017-11-26T12:34:36.014Z,6.71
2017-11-26T12:35:36.036Z,6.62
2017-11-26T12:36:36.050Z,6.67
2017-11-26T12:37:36.049Z,6.74
2017-11-26T12:38:36.086Z,6.71
2017-11-26T12:39:35.827Z,6.64
2017-11-26T12:40:35.867Z,6.62
2017-11-26T12:41:36.108Z,6.59
2017-11-26T12:42:35.899Z,6.7
2017-11-26T12:43:50.842Z,6.59
2017-11-26T12:44:36.184Z,6.58
2017-11-26T12:45:35.958Z,6.67
2017-11-26T12:47:36.218Z,6.51
2017-11-26T12:48:36.279Z,6.54
2017-11-26T12:49:36.252Z,6.58
2017-11-26T12:50:36.294Z,6.52
2017-11-26T12:51:50.960Z,6.64
2017-11-26T12:52:51.105Z,6.58
2017-11-26T12:53:36.312Z,6.58
2017-11-26T12:54:36.368Z,6.54
2017-11-26T12:55:36.385Z,6.49
2017-11-26T12:56:51.058Z,6.49
2017-11-26T12:58:36.436Z,6.43
2017-11-26T12:59:36.461Z,6.46
2017-11-26T13:00:51.145Z,6.46
2017-11-26T13:01:36.473Z,6.46
2017-11-26T13:02:36.507Z,6.58
2017-11-26T13:03:36.504Z,6.43
2017-11-26T13:04:36.267Z,6.43
2017-11-26T13:05:36.534Z,6.43
2017-11-26T13:07:51.250Z,6.51
2017-11-26T13:08:36.605Z,6.56
2017-11-26T13:09:36.609Z,6.4
2017-11-26T13:11:51.301Z,6.31
2017-11-26T13:12:36.670Z,6.34
2017-11-26T13:13:36.672Z,6.36
2017-11-26T13:14:36.705Z,6.37
2017-11-26T13:15:36.721Z,6.31
2017-11-26T13:16:51.393Z,6.31
2017-11-26T13:17:51.399Z,6.38
2017-11-26T13:18:36.766Z,6.46
2017-11-26T13:20:36.803Z,6.52
2017-11-26T13:22:36.814Z,6.4
2017-11-26T13:23:51.516Z,6.4
2017-11-26T13:24:36.861Z,6.41
2017-11-26T13:25:36.865Z,6.48
2017-11-26T13:26:36.884Z,6.48
2017-11-26T13:27:36.897Z,6.37
2017-11-26T13:28:36.918Z,6.38
2017-11-26T13:29:36.930Z,6.36
2017-11-26T13:30:36.957Z,6.38
2017-11-26T13:31:51.644Z,6.28
2017-11-26T13:32:36.986Z,6.25
2017-11-26T13:33:51.651Z,6.3
2017-11-26T13:34:36.491Z,6.28
2017-11-26T13:35:37.136Z,6.31
2017-11-26T13:36:37.061Z,6.37
2017-11-26T13:37:37.092Z,6.28
2017-11-26T13:38:37.099Z,6.3
2017-11-26T13:39:51.518Z,6.31
2017-11-26T13:41:36.870Z,6.28
2017-11-26T13:42:36.873Z,6.43
2017-11-26T13:43:37.179Z,6.38
2017-11-26T13:44:37.183Z,6.51
2017-11-26T13:45:37.297Z,6.41
2017-11-26T13:46:37.205Z,6.36
2017-11-26T13:47:37.254Z,6.4
2017-11-26T13:48:37.255Z,6.37
2017-11-26T13:49:37.257Z,6.37
2017-11-26T13:50:37.297Z,6.36
2017-11-26T13:51:37.322Z,6.4
2017-11-26T13:52:37.307Z,6.33
2017-11-26T13:53:37.312Z,6.38
2017-11-26T13:54:52.007Z,6.34
2017-11-26T13:55:37.404Z,6.31
2017-11-26T13:56:37.379Z,6.28
2017-11-26T13:57:37.173Z,6.33
2017-11-26T13:58:37.443Z,6.33
2017-11-26T13:59:37.434Z,6.41
2017-11-26T14:00:37.466Z,6.37
2017-11-26T14:01:37.479Z,6.37
2017-11-26T14:02:37.496Z,6.49
2017-11-26T14:03:52.169Z,6.41
2017-11-26T14:04:37.540Z,6.48
2017-11-26T14:05:37.515Z,6.4
2017-11-26T14:06:37.551Z,6.43
2017-11-26T14:07:37.541Z,6.36
2017-11-26T14:09:37.359Z,6.37
2017-11-26T14:10:37.637Z,6.34
2017-11-26T14:11:37.638Z,6.34
2017-11-26T14:12:37.662Z,6.3
2017-11-26T14:13:37.677Z,6.28
2017-11-26T14:14:37.718Z,6.36
2017-11-26T14:15:37.728Z,6.3
2017-11-26T14:16:37.715Z,6.22